createdAt,value
2019-04-06T00:00:34.712Z,42.45
2019-04-06T00:04:39.643Z,47.93
2019-04-06T00:08:45.624Z,42.25
2019-04-06T00:12:50.563Z,46.63
2019-04-06T00:16:55.729Z,45.05
2019-04-06T00:21:00.491Z,39.75
2019-04-06T00:25:06.630Z,44.93
2019-04-06T00:29:11.448Z,43.15
2019-04-06T00:33:18.073Z,40.28
2019-04-06T00:37:22.907Z,48.95
2019-04-06T00:41:29.304Z,42.13
2019-04-06T00:45:34.149Z,42.35
2019-04-06T00:49:39.041Z,46.58
2019-04-06T00:53:43.975Z,40.85
2019-04-06T00:57:48.699Z,46.37
2019-04-06T01:01:53.564Z,41.80
2019-04-06T01:05:58.347Z,39.00
2019-04-06T01:10:03.221Z,38.70
2019-04-06T01:14:08.767Z,40.08
2019-04-06T01:18:13.655Z,39.78
2019-04-06T01:22:18.529Z,41.50
2019-04-06T01:26:23.403Z,41.83
2019-04-06T01:30:28.492Z,42.25
2019-04-06T01:34:33.677Z,47.55
2019-04-06T01:38:40.762Z,45.35
2019-04-06T01:42:45.924Z,39.90
2019-04-06T01:46:52.404Z,44.00
2019-04-06T01:50:57.171Z,44.53
2019-04-06T01:55:01.941Z,42.73
2019-04-06T01:59:06.840Z,44.38
2019-04-06T02:03:11.771Z,49.80
2019-04-06T02:07:16.886Z,44.33
2019-04-06T02:11:22.988Z,50.83
2019-04-06T02:15:27.706Z,45.25
2019-04-06T02:19:32.444Z,44.73
2019-04-06T02:23:37.336Z,43.78
2019-04-06T02:27:42.068Z,47.15
2019-04-06T02:32:02.126Z,44.13
2019-04-06T02:36:33.278Z,48.33
2019-04-06T02:40:49.565Z,47.80
2019-04-06T02:44:55.675Z,41.95
2019-04-06T02:49:00.637Z,46.13
2019-04-06T02:53:05.545Z,44.30
2019-04-06T02:57:10.343Z,46.58
2019-04-06T03:01:15.499Z,43.98
2019-04-06T03:05:20.409Z,48.92
2019-04-06T03:09:25.619Z,45.08
2019-04-06T03:13:30.775Z,47.08
2019-04-06T03:17:35.580Z,44.15
2019-04-06T03:21:40.660Z,45.08
2019-04-06T03:25:45.521Z,46.00
2019-04-06T03:29:57.586Z,51.20
2019-04-06T03:33:57.021Z,48.90
2019-04-06T03:38:03.159Z,49.63
2019-04-06T03:42:10.800Z,46.75
2019-04-06T03:46:15.157Z,50.38
2019-04-06T03:50:20.187Z,45.70
2019-04-06T03:54:25.378Z,47.88
2019-04-06T03:58:30.203Z,48.00
2019-04-06T04:02:35.133Z,48.65
2019-04-06T04:06:39.990Z,45.00
2019-04-06T04:10:47.340Z,45.43
2019-04-06T04:14:51.232Z,55.52
2019-04-06T04:18:56.045Z,47.98
2019-04-06T04:23:00.920Z,51.02
2019-04-06T04:27:06.893Z,45.05
2019-04-06T04:31:11.705Z,52.48
2019-04-06T04:35:18.553Z,54.63
2019-04-06T04:39:22.968Z,54.08
2019-04-06T04:43:27.945Z,50.08
2019-04-06T04:47:32.690Z,50.83
2019-04-06T04:51:37.431Z,53.65
2019-04-06T04:55:42.297Z,53.30
2019-04-06T04:59:47.107Z,51.40
2019-04-06T05:03:51.964Z,46.37
2019-04-06T05:07:57.088Z,49.95
2019-04-06T05:12:02.322Z,52.93
2019-04-06T05:16:11.660Z,50.67
2019-04-06T05:20:16.852Z,49.38
2019-04-06T05:24:21.586Z,45.43
2019-04-06T05:28:26.327Z,49.67
2019-04-06T05:32:31.416Z,44.93
2019-04-06T05:36:36.215Z,48.65
2019-04-06T05:40:41.041Z,47.88
2019-04-06T05:44:46.031Z,47.08
2019-04-06T05:48:50.894Z,52.13
2019-04-06T05:52:56.315Z,51.88
2019-04-06T05:57:01.138Z,49.15
2019-04-06T06:01:06.440Z,48.73
2019-04-06T06:05:11.514Z,47.75
2019-04-06T06:09:16.679Z,54.23
2019-04-06T06:13:21.648Z,55.70
2019-04-06T06:17:26.617Z,57.83
2019-04-06T06:21:32.017Z,50.60
2019-04-06T06:25:37.295Z,51.33
2019-04-06T06:29:42.215Z,55.25
2019-04-06T06:33:47.259Z,54.18
2019-04-06T06:37:52.562Z,57.17
2019-04-06T06:41:57.872Z,64.25
2019-04-06T06:46:03.009Z,57.20
2019-04-06T06:50:08.596Z,49.15
2019-04-06T06:54:13.688Z,52.80
2019-04-06T06:58:25.136Z,53.73
2019-04-06T07:02:25.467Z,55.85
2019-04-06T07:06:30.387Z,57.67
2019-04-06T07:10:35.207Z,54.38
2019-04-06T07:14:40.297Z,53.87
2019-04-06T07:18:45.288Z,58.48
2019-04-06T07:22:50.227Z,51.70
2019-04-06T07:26:55.504Z,51.45
2019-04-06T07:31:02.984Z,55.65
2019-04-06T07:35:08.360Z,56.00
2019-04-06T07:39:14.778Z,55.10
2019-04-06T07:43:19.957Z,56.55
2019-04-06T07:47:25.024Z,57.38
2019-04-06T07:51:30.337Z,56.37
2019-04-06T07:55:36.928Z,52.90
2019-04-06T07:59:43.142Z,59.38
2019-04-06T08:03:48.202Z,61.23
2019-04-06T08:07:53.108Z,56.35
2019-04-06T08:11:58.154Z,54.48
2019-04-06T08:16:03.401Z,55.65
2019-04-06T08:20:08.892Z,58.08
2019-04-06T08:24:13.978Z,61.20
2019-04-06T08:28:19.129Z,60.70
2019-04-06T08:32:24.180Z,61.13
2019-04-06T08:36:30.210Z,58.50
2019-04-06T08:40:35.265Z,59.73
2019-04-06T08:44:40.553Z,62.13
2019-04-06T08:48:45.466Z,59.55
2019-04-06T08:52:51.117Z,58.55
2019-04-06T08:56:56.391Z,58.45
2019-04-06T09:01:04.628Z,52.95
2019-04-06T09:05:09.672Z,57.70
2019-04-06T09:09:14.507Z,55.85
2019-04-06T09:13:19.651Z,50.48
2019-04-06T09:17:24.648Z,55.78
2019-04-06T09:21:29.589Z,53.70
2019-04-06T09:25:34.575Z,49.20
2019-04-06T09:29:39.514Z,45.70
2019-04-06T09:33:44.741Z,49.53
2019-04-06T09:37:49.871Z,48.15
2019-04-06T09:41:55.426Z,47.23
2019-04-06T09:46:13.786Z,51.88
2019-04-06T09:50:34.436Z,44.18
2019-04-06T09:54:51.459Z,42.60
2019-04-06T09:59:07.641Z,42.85
2019-04-06T10:03:38.818Z,41.48
2019-04-06T10:07:49.588Z,37.90
2019-04-06T10:12:19.905Z,43.90
2019-04-06T10:16:59.747Z,39.00
2019-04-06T10:21:24.040Z,39.53
2019-04-06T10:26:03.300Z,42.40
2019-04-06T10:30:26.857Z,38.05
2019-04-06T10:34:49.548Z,30.48
2019-04-06T10:39:16.280Z,34.00
2019-04-06T10:43:38.503Z,32.60
2019-04-06T10:52:17.803Z,34.23
2019-04-06T10:56:34.016Z,29.60
2019-04-06T11:00:51.169Z,35.10
2019-04-06T11:05:06.622Z,30.35
2019-04-06T11:09:29.302Z,33.65
2019-04-06T11:14:08.693Z,31.85
2019-04-06T11:18:29.145Z,34.30
2019-04-06T11:23:05.671Z,34.45
2019-04-06T11:27:27.762Z,36.77
2019-04-06T11:31:42.692Z,31.03
2019-04-06T11:36:18.714Z,30.97
2019-04-06T11:40:41.295Z,29.63
2019-04-06T11:45:11.494Z,28.40
2019-04-06T11:49:22.642Z,32.00
2019-04-06T11:53:45.005Z,33.75
2019-04-06T11:58:07.891Z,33.50
2019-04-06T12:02:32.294Z,31.62
2019-04-06T12:06:56.760Z,29.32
2019-04-06T12:11:25.877Z,28.27
2019-04-06T12:15:46.092Z,28.30
2019-04-06T12:20:16.070Z,23.57
2019-04-06T12:24:42.908Z,21.73
2019-04-06T12:29:05.479Z,23.47
2019-04-06T12:33:25.504Z,21.00
2019-04-06T12:37:49.436Z,23.77
2019-04-06T12:42:25.560Z,20.05
2019-04-06T12:46:50.788Z,19.20
2019-04-06T12:51:33.222Z,18.60
2019-04-06T12:55:48.877Z,20.55
2019-04-06T13:00:15.946Z,19.80
2019-04-06T13:04:58.352Z,20.68
2019-04-06T13:09:28.463Z,18.98
2019-04-06T13:13:45.548Z,16.10
2019-04-06T13:18:08.500Z,13.45
2019-04-06T13:22:31.520Z,14.63
2019-04-06T13:26:54.347Z,12.07
2019-04-06T13:31:12.868Z,13.20
2019-04-06T13:35:35.612Z,12.73
2019-04-06T13:39:58.268Z,12.10
2019-04-06T13:44:28.482Z,9.45
2019-04-06T13:48:55.559Z,11.22
2019-04-06T13:53:07.892Z,10.68
2019-04-06T13:57:24.788Z,9.60
2019-04-06T14:01:39.430Z,10.35
2019-04-06T14:06:12.718Z,10.45
2019-04-06T14:10:33.571Z,10.08
2019-04-06T14:14:45.716Z,10.83
2019-04-06T14:19:19.456Z,10.53
2019-04-06T14:23:31.200Z,9.10
2019-04-06T14:32:16.556Z,11.70
2019-04-06T14:36:34.349Z,11.63
2019-04-06T14:40:52.685Z,9.00
2019-04-06T14:45:17.869Z,10.58
2019-04-06T14:49:33.087Z,9.48
2019-04-06T14:53:43.431Z,9.58
2019-04-06T14:57:56.790Z,9.88
2019-04-06T15:02:11.287Z,7.95
2019-04-06T15:06:35.132Z,8.55
2019-04-06T15:10:53.952Z,10.48
2019-04-06T15:15:16.862Z,11.75
2019-04-06T15:19:35.835Z,8.10
2019-04-06T15:23:51.567Z,8.48
2019-04-06T15:28:11.140Z,8.08
2019-04-06T15:32:38.295Z,9.33
2019-04-06T15:37:02.668Z,7.22
2019-04-06T15:41:30.046Z,9.63
2019-04-06T15:46:04.289Z,7.15
2019-04-06T15:50:31.365Z,7.65
2019-04-06T15:54:58.328Z,7.87
2019-04-06T15:59:09.599Z,7.53
2019-04-06T16:03:32.685Z,6.90
2019-04-06T16:08:18.445Z,6.75
2019-04-06T16:12:32.620Z,6.47
2019-04-06T16:16:56.619Z,7.72
2019-04-06T16:21:20.930Z,6.10
2019-04-06T16:25:32.013Z,6.50
2019-04-06T16:29:46.278Z,4.93
2019-04-06T16:34:11.805Z,6.20
2019-04-06T16:38:45.058Z,5.87
2019-04-06T16:42:56.852Z,8.63
2019-04-06T16:47:11.423Z,4.97
2019-04-06T16:51:29.828Z,5.60
2019-04-06T16:55:44.629Z,5.17
2019-04-06T17:00:17.020Z,7.90
2019-04-06T17:04:29.734Z,11.68
2019-04-06T17:08:43.643Z,9.33
2019-04-06T17:12:56.935Z,11.03
2019-04-06T17:17:17.565Z,7.53
2019-04-06T17:21:31.563Z,7.67
2019-04-06T17:25:46.367Z,6.72
2019-04-06T17:30:06.740Z,6.58
2019-04-06T17:34:19.947Z,6.67
2019-04-06T17:38:42.074Z,9.88
2019-04-06T17:43:04.879Z,8.85
2019-04-06T17:47:34.875Z,8.20
2019-04-06T17:52:05.623Z,6.37
2019-04-06T17:56:38.815Z,5.65
2019-04-06T18:00:59.927Z,6.30
2019-04-06T18:05:30.552Z,9.30
2019-04-06T18:09:40.076Z,6.58
2019-04-06T18:13:50.026Z,7.15
2019-04-06T18:17:55.000Z,6.70
2019-04-06T18:22:00.635Z,6.55
2019-04-06T18:26:06.022Z,8.05
2019-04-06T18:30:11.437Z,7.58
2019-04-06T18:34:17.580Z,6.87
2019-04-06T18:38:27.436Z,6.60
2019-04-06T18:42:33.174Z,7.45
2019-04-06T18:46:40.551Z,7.80
2019-04-06T18:50:46.296Z,10.43
2019-04-06T18:54:52.111Z,7.20
2019-04-06T18:58:59.772Z,8.30
2019-04-06T19:03:17.407Z,7.50
2019-04-06T19:07:12.091Z,12.40
2019-04-06T19:11:17.382Z,9.03
2019-04-06T19:15:24.374Z,8.80
2019-04-06T19:19:31.279Z,8.08
2019-04-06T19:23:37.926Z,11.88
2019-04-06T19:27:43.264Z,8.18
2019-04-06T19:31:48.388Z,8.65
2019-04-06T19:35:53.404Z,8.10
2019-04-06T19:39:58.508Z,9.50
2019-04-06T19:44:03.963Z,9.00
2019-04-06T19:48:09.598Z,7.62
2019-04-06T19:52:34.746Z,9.23
2019-04-06T19:56:40.012Z,13.70
2019-04-06T20:00:46.886Z,16.20
2019-04-06T20:04:58.169Z,10.85
2019-04-06T20:09:06.186Z,9.97
2019-04-06T20:13:12.950Z,8.70
2019-04-06T20:17:18.608Z,10.25
2019-04-06T20:21:24.302Z,9.38
2019-04-06T20:25:29.594Z,11.03
2019-04-06T20:29:34.666Z,9.35
2019-04-06T20:33:48.254Z,9.15
2019-04-06T20:37:46.824Z,10.82
2019-04-06T20:41:52.952Z,9.40
2019-04-06T20:46:00.940Z,11.30
2019-04-06T20:50:09.253Z,8.33
2019-04-06T20:54:14.253Z,9.03
2019-04-06T20:58:19.428Z,12.07
2019-04-06T21:02:24.708Z,8.80
2019-04-06T21:06:29.772Z,8.95
2019-04-06T21:10:35.167Z,9.13
2019-04-06T21:14:40.530Z,9.40
2019-04-06T21:18:45.472Z,9.03
2019-04-06T21:22:50.761Z,10.98
2019-04-06T21:26:56.560Z,10.72
2019-04-06T21:31:02.339Z,7.55
2019-04-06T21:35:07.320Z,10.00
2019-04-06T21:39:12.449Z,9.75
2019-04-06T21:43:17.862Z,8.70
2019-04-06T21:47:24.074Z,11.68
2019-04-06T21:51:30.943Z,8.83
2019-04-06T21:55:37.919Z,8.33
2019-04-06T21:59:43.949Z,7.45
2019-04-06T22:03:50.670Z,6.47
2019-04-06T22:07:56.370Z,6.15
2019-04-06T22:12:02.226Z,8.65
2019-04-06T22:16:09.607Z,6.70
2019-04-06T22:20:15.339Z,8.15
2019-04-06T22:24:21.298Z,10.78
2019-04-06T22:28:26.897Z,5.92
2019-04-06T22:32:32.313Z,8.00
2019-04-06T22:36:37.491Z,6.75
2019-04-06T22:40:42.856Z,4.87
2019-04-06T22:44:48.892Z,7.08
2019-04-06T22:48:53.885Z,7.45
2019-04-06T22:53:01.642Z,7.53
2019-04-06T22:57:09.067Z,5.30
2019-04-06T23:01:16.331Z,6.72
2019-04-06T23:05:29.542Z,4.45
2019-04-06T23:09:34.580Z,5.85
2019-04-06T23:13:39.756Z,7.17
2019-04-06T23:17:44.752Z,4.83
2019-04-06T23:22:09.068Z,4.03
2019-04-06T23:26:14.593Z,4.85
2019-04-06T23:30:19.609Z,3.72
2019-04-06T23:34:24.870Z,5.20
2019-04-06T23:38:29.941Z,5.35
2019-04-06T23:42:35.389Z,5.92
2019-04-06T23:46:40.692Z,7.37
2019-04-06T23:50:45.713Z,7.12
2019-04-06T23:54:50.888Z,5.78
2019-04-06T23:58:55.809Z,7.20
